sensor_id;sensor_type;location;lat;lon;timestamp;P1;durP1;ratioP1;P2;durP2;ratioP2
55732;SDS011;41637;52.364;9.910;2022-11-02T00:03:36;9.40;;;2.00;;
55732;SDS011;41637;52.364;9.910;2022-11-02T00:06:02;6.40;;;1.80;;
55732;SDS011;41637;52.364;9.910;2022-11-02T00:08:29;9.20;;;1.60;;
55732;SDS011;41637;52.364;9.910;2022-11-02T00:10:56;8.10;;;2.00;;
55732;SDS011;41637;52.364;9.910;2022-11-02T00:13:22;7.70;;;1.70;;
55732;SDS011;41637;52.364;9.910;2022-11-02T00:15:49;6.80;;;1.60;;
55732;SDS011;41637;52.364;9.910;2022-11-02T00:18:15;7.10;;;1.50;;
55732;SDS011;41637;52.364;9.910;2022-11-02T00:20:42;7.80;;;1.50;;
55732;SDS011;41637;52.364;9.910;2022-11-02T00:23:08;7.40;;;2.00;;
55732;SDS011;41637;52.364;9.910;2022-11-02T00:25:39;7.00;;;1.80;;
55732;SDS011;41637;52.364;9.910;2022-11-02T00:28:07;8.40;;;1.70;;
55732;SDS011;41637;52.364;9.910;2022-11-02T00:30:34;7.20;;;1.70;;
55732;SDS011;41637;52.364;9.910;2022-11-02T00:33:01;10.10;;;1.70;;
55732;SDS011;41637;52.364;9.910;2022-11-02T00:35:28;10.60;;;1.70;;
55732;SDS011;41637;52.364;9.910;2022-11-02T00:37:55;7.60;;;1.40;;
55732;SDS011;41637;52.364;9.910;2022-11-02T00:40:21;11.20;;;1.90;;
55732;SDS011;41637;52.364;9.910;2022-11-02T00:42:47;8.30;;;1.40;;
55732;SDS011;41637;52.364;9.910;2022-11-02T00:45:14;5.80;;;1.50;;
55732;SDS011;41637;52.364;9.910;2022-11-02T00:47:40;6.40;;;1.50;;
55732;SDS011;41637;52.364;9.910;2022-11-02T00:50:07;9.20;;;1.90;;
55732;SDS011;41637;52.364;9.910;2022-11-02T00:52:39;7.70;;;1.50;;
55732;SDS011;41637;52.364;9.910;2022-11-02T00:55:08;6.70;;;1.50;;
55732;SDS011;41637;52.364;9.910;2022-11-02T00:57:42;6.10;;;1.20;;
55732;SDS011;41637;52.364;9.910;2022-11-02T01:00:14;9.00;;;1.60;;
55732;SDS011;41637;52.364;9.910;2022-11-02T01:02:42;8.70;;;1.70;;
55732;SDS011;41637;52.364;9.910;2022-11-02T01:05:16;8.40;;;1.90;;
55732;SDS011;41637;52.364;9.910;2022-11-02T01:07:48;7.60;;;1.80;;
55732;SDS011;41637;52.364;9.910;2022-11-02T01:10:22;7.80;;;1.70;;
55732;SDS011;41637;52.364;9.910;2022-11-02T01:13:01;9.00;;;1.90;;
55732;SDS011;41637;52.364;9.910;2022-11-02T01:15:39;7.00;;;1.50;;
55732;SDS011;41637;52.364;9.910;2022-11-02T01:18:19;9.70;;;1.80;;
55732;SDS011;41637;52.364;9.910;2022-11-02T01:21:02;11.60;;;2.00;;
55732;SDS011;41637;52.364;9.910;2022-11-02T01:23:54;7.60;;;1.60;;
55732;SDS011;41637;52.364;9.910;2022-11-02T01:26:22;8.20;;;1.70;;
55732;SDS011;41637;52.364;9.910;2022-11-02T01:28:51;9.30;;;1.80;;
55732;SDS011;41637;52.364;9.910;2022-11-02T01:31:21;9.70;;;2.10;;
55732;SDS011;41637;52.364;9.910;2022-11-02T01:33:48;8.00;;;1.80;;
55732;SDS011;41637;52.364;9.910;2022-11-02T01:36:18;9.60;;;2.20;;
55732;SDS011;41637;52.364;9.910;2022-11-02T01:38:52;6.40;;;1.50;;
55732;SDS011;41637;52.364;9.910;2022-11-02T01:41:37;8.60;;;1.90;;
55732;SDS011;41637;52.364;9.910;2022-11-02T01:44:19;10.90;;;1.70;;
55732;SDS011;41637;52.364;9.910;2022-11-02T01:47:20;7.90;;;1.30;;
55732;SDS011;41637;52.364;9.910;2022-11-02T01:49:52;5.20;;;1.10;;
55732;SDS011;41637;52.364;9.910;2022-11-02T01:52:35;9.80;;;1.70;;
55732;SDS011;41637;52.364;9.910;2022-11-02T01:57:42;10.10;;;1.90;;
55732;SDS011;41637;52.364;9.910;2022-11-02T02:00:13;6.70;;;1.70;;
55732;SDS011;41637;52.364;9.910;2022-11-02T02:02:55;8.20;;;1.70;;
55732;SDS011;41637;52.364;9.910;2022-11-02T02:05:41;9.10;;;1.70;;
55732;SDS011;41637;52.364;9.910;2022-11-02T02:08:35;10.20;;;2.90;;
55732;SDS011;41637;52.364;9.910;2022-11-02T02:11:23;6.50;;;1.80;;
55732;SDS011;41637;52.364;9.910;2022-11-02T02:31:34;11.70;;;2.30;;
55732;SDS011;41637;52.364;9.910;2022-11-02T02:34:09;8.20;;;1.60;;
55732;SDS011;41637;52.364;9.910;2022-11-02T02:40:44;10.90;;;1.60;;
55732;SDS011;41637;52.364;9.910;2022-11-02T02:42:57;8.20;;;2.50;;
55732;SDS011;41637;52.364;9.910;2022-11-02T02:48:30;10.70;;;1.80;;
55732;SDS011;41637;52.364;9.910;2022-11-02T02:51:17;8.90;;;1.70;;
55732;SDS011;41637;52.364;9.910;2022-11-02T02:53:51;10.40;;;2.00;;
55732;SDS011;41637;52.364;9.910;2022-11-02T02:56:24;6.60;;;1.70;;
55732;SDS011;41637;52.364;9.910;2022-11-02T02:58:59;8.10;;;1.80;;
55732;SDS011;41637;52.364;9.910;2022-11-02T03:01:30;7.40;;;1.70;;
55732;SDS011;41637;52.364;9.910;2022-11-02T03:03:58;8.90;;;1.80;;
55732;SDS011;41637;52.364;9.910;2022-11-02T03:06:30;8.20;;;1.60;;
55732;SDS011;41637;52.364;9.910;2022-11-02T03:15:16;8.70;;;1.90;;
55732;SDS011;41637;52.364;9.910;2022-11-02T03:21:35;8.30;;;1.60;;
55732;SDS011;41637;52.364;9.910;2022-11-02T03:29:55;8.10;;;1.80;;
55732;SDS011;41637;52.364;9.910;2022-11-02T03:36:07;7.30;;;1.80;;
55732;SDS011;41637;52.364;9.910;2022-11-02T03:38:29;10.10;;;1.90;;
55732;SDS011;41637;52.364;9.910;2022-11-02T03:41:08;8.70;;;1.90;;
55732;SDS011;41637;52.364;9.910;2022-11-02T03:43:47;7.40;;;1.60;;
55732;SDS011;41637;52.364;9.910;2022-11-02T03:46:20;10.50;;;1.50;;
55732;SDS011;41637;52.364;9.910;2022-11-02T03:48:59;5.80;;;1.40;;
55732;SDS011;41637;52.364;9.910;2022-11-02T03:54:05;9.40;;;1.60;;
55732;SDS011;41637;52.364;9.910;2022-11-02T03:56:38;8.40;;;1.80;;
55732;SDS011;41637;52.364;9.910;2022-11-02T03:59:09;7.40;;;1.40;;
55732;SDS011;41637;52.364;9.910;2022-11-02T04:01:39;9.70;;;1.80;;
55732;SDS011;41637;52.364;9.910;2022-11-02T04:04:10;7.10;;;1.50;;
55732;SDS011;41637;52.364;9.910;2022-11-02T04:06:39;9.70;;;1.90;;
55732;SDS011;41637;52.364;9.910;2022-11-02T04:09:08;9.10;;;1.80;;
55732;SDS011;41637;52.364;9.910;2022-11-02T04:11:35;8.70;;;2.10;;
55732;SDS011;41637;52.364;9.910;2022-11-02T04:14:21;7.70;;;1.50;;
55732;SDS011;41637;52.364;9.910;2022-11-02T04:17:10;8.60;;;1.70;;
55732;SDS011;41637;52.364;9.910;2022-11-02T04:20:00;6.40;;;1.70;;
55732;SDS011;41637;52.364;9.910;2022-11-02T04:22:37;8.50;;;1.90;;
55732;SDS011;41637;52.364;9.910;2022-11-02T04:25:34;10.20;;;1.70;;
55732;SDS011;41637;52.364;9.910;2022-11-02T04:28:07;10.30;;;2.00;;
55732;SDS011;41637;52.364;9.910;2022-11-02T04:30:35;9.30;;;1.90;;
55732;SDS011;41637;52.364;9.910;2022-11-02T04:33:01;8.30;;;1.80;;
55732;SDS011;41637;52.364;9.910;2022-11-02T04:35:46;7.10;;;1.60;;
55732;SDS011;41637;52.364;9.910;2022-11-02T04:38:17;10.00;;;2.10;;
55732;SDS011;41637;52.364;9.910;2022-11-02T04:41:02;6.70;;;1.50;;
55732;SDS011;41637;52.364;9.910;2022-11-02T04:43:49;7.90;;;1.70;;
55732;SDS011;41637;52.364;9.910;2022-11-02T04:46:28;6.70;;;1.50;;
55732;SDS011;41637;52.364;9.910;2022-11-02T04:48:57;10.20;;;1.90;;
55732;SDS011;41637;52.364;9.910;2022-11-02T04:51:34;6.00;;;1.30;;
55732;SDS011;41637;52.364;9.910;2022-11-02T04:54:14;9.80;;;1.50;;
55732;SDS011;41637;52.364;9.910;2022-11-02T04:56:41;10.60;;;1.50;;
55732;SDS011;41637;52.364;9.910;2022-11-02T04:59:07;7.70;;;1.40;;
55732;SDS011;41637;52.364;9.910;2022-11-02T05:01:34;10.20;;;1.70;;
55732;SDS011;41637;52.364;9.910;2022-11-02T05:04:03;8.10;;;1.80;;
55732;SDS011;41637;52.364;9.910;2022-11-02T05:06:31;9.10;;;1.80;;
55732;SDS011;41637;52.364;9.910;2022-11-02T05:09:08;8.90;;;2.10;;
55732;SDS011;41637;52.364;9.910;2022-11-02T05:11:39;6.50;;;1.60;;
55732;SDS011;41637;52.364;9.910;2022-11-02T05:14:13;7.50;;;1.70;;
55732;SDS011;41637;52.364;9.910;2022-11-02T05:16:49;8.70;;;1.50;;
55732;SDS011;41637;52.364;9.910;2022-11-02T05:19:18;8.00;;;1.60;;
55732;SDS011;41637;52.364;9.910;2022-11-02T05:21:58;7.30;;;2.10;;
55732;SDS011;41637;52.364;9.910;2022-11-02T05:24:32;8.00;;;1.70;;
55732;SDS011;41637;52.364;9.910;2022-11-02T05:27:00;9.00;;;1.70;;
55732;SDS011;41637;52.364;9.910;2022-11-02T05:29:27;6.00;;;1.60;;
55732;SDS011;41637;52.364;9.910;2022-11-02T05:31:54;7.70;;;1.80;;
55732;SDS011;41637;52.364;9.910;2022-11-02T05:34:22;7.30;;;1.60;;
55732;SDS011;41637;52.364;9.910;2022-11-02T05:36:49;6.30;;;1.70;;
55732;SDS011;41637;52.364;9.910;2022-11-02T05:39:16;7.50;;;1.50;;
55732;SDS011;41637;52.364;9.910;2022-11-02T05:41:42;6.00;;;1.60;;
55732;SDS011;41637;52.364;9.910;2022-11-02T05:44:09;10.30;;;1.90;;
55732;SDS011;41637;52.364;9.910;2022-11-02T05:46:35;6.50;;;1.80;;
55732;SDS011;41637;52.364;9.910;2022-11-02T05:49:04;9.60;;;1.50;;
55732;SDS011;41637;52.364;9.910;2022-11-02T05:51:36;7.20;;;1.50;;
55732;SDS011;41637;52.364;9.910;2022-11-02T05:54:07;6.60;;;1.40;;
55732;SDS011;41637;52.364;9.910;2022-11-02T05:56:41;6.80;;;1.60;;
55732;SDS011;41637;52.364;9.910;2022-11-02T05:59:08;7.20;;;1.70;;
55732;SDS011;41637;52.364;9.910;2022-11-02T06:01:35;8.70;;;1.60;;
55732;SDS011;41637;52.364;9.910;2022-11-02T06:04:02;7.50;;;1.40;;
55732;SDS011;41637;52.364;9.910;2022-11-02T06:06:28;10.60;;;2.00;;
55732;SDS011;41637;52.364;9.910;2022-11-02T06:08:54;8.50;;;1.90;;
55732;SDS011;41637;52.364;9.910;2022-11-02T06:11:21;12.00;;;2.50;;
55732;SDS011;41637;52.364;9.910;2022-11-02T06:13:50;10.00;;;1.90;;
55732;SDS011;41637;52.364;9.910;2022-11-02T06:16:18;7.10;;;2.00;;
55732;SDS011;41637;52.364;9.910;2022-11-02T06:18:54;11.10;;;1.70;;
55732;SDS011;41637;52.364;9.910;2022-11-02T06:21:21;8.30;;;1.80;;
55732;SDS011;41637;52.364;9.910;2022-11-02T06:23:50;8.70;;;1.70;;
55732;SDS011;41637;52.364;9.910;2022-11-02T06:26:20;8.30;;;1.90;;
55732;SDS011;41637;52.364;9.910;2022-11-02T06:28:56;9.70;;;1.70;;
55732;SDS011;41637;52.364;9.910;2022-11-02T06:31:32;7.20;;;1.70;;
55732;SDS011;41637;52.364;9.910;2022-11-02T06:33:58;6.90;;;1.70;;
55732;SDS011;41637;52.364;9.910;2022-11-02T06:36:25;8.70;;;1.30;;
55732;SDS011;41637;52.364;9.910;2022-11-02T06:38:52;7.40;;;1.70;;
55732;SDS011;41637;52.364;9.910;2022-11-02T06:41:19;7.70;;;1.80;;
55732;SDS011;41637;52.364;9.910;2022-11-02T06:43:47;7.70;;;1.90;;
55732;SDS011;41637;52.364;9.910;2022-11-02T06:46:14;6.30;;;1.70;;
55732;SDS011;41637;52.364;9.910;2022-11-02T06:48:51;22.90;;;11.70;;
55732;SDS011;41637;52.364;9.910;2022-11-02T06:51:18;15.50;;;6.90;;
55732;SDS011;41637;52.364;9.910;2022-11-02T06:53:55;23.60;;;13.70;;
55732;SDS011;41637;52.364;9.910;2022-11-02T06:56:37;18.00;;;8.30;;
55732;SDS011;41637;52.364;9.910;2022-11-02T06:59:12;16.90;;;6.90;;
55732;SDS011;41637;52.364;9.910;2022-11-02T07:01:39;19.40;;;9.60;;
55732;SDS011;41637;52.364;9.910;2022-11-02T07:04:08;19.20;;;8.70;;
55732;SDS011;41637;52.364;9.910;2022-11-02T07:06:35;12.90;;;4.40;;
55732;SDS011;41637;52.364;9.910;2022-11-02T07:09:05;24.50;;;13.10;;
55732;SDS011;41637;52.364;9.910;2022-11-02T07:11:31;10.60;;;3.60;;
55732;SDS011;41637;52.364;9.910;2022-11-02T07:14:00;7.80;;;2.30;;
55732;SDS011;41637;52.364;9.910;2022-11-02T07:16:29;11.80;;;3.50;;
55732;SDS011;41637;52.364;9.910;2022-11-02T07:19:02;24.80;;;13.30;;
55732;SDS011;41637;52.364;9.910;2022-11-02T07:21:31;21.70;;;10.90;;
55732;SDS011;41637;52.364;9.910;2022-11-02T07:24:10;16.30;;;8.50;;
55732;SDS011;41637;52.364;9.910;2022-11-02T07:26:36;17.20;;;9.40;;
55732;SDS011;41637;52.364;9.910;2022-11-02T07:29:10;11.50;;;3.80;;
55732;SDS011;41637;52.364;9.910;2022-11-02T07:31:37;18.00;;;9.20;;
55732;SDS011;41637;52.364;9.910;2022-11-02T07:34:03;6.30;;;1.70;;
55732;SDS011;41637;52.364;9.910;2022-11-02T07:36:33;6.70;;;2.10;;
55732;SDS011;41637;52.364;9.910;2022-11-02T07:39:06;8.90;;;2.10;;
55732;SDS011;41637;52.364;9.910;2022-11-02T07:41:35;11.00;;;3.70;;
55732;SDS011;41637;52.364;9.910;2022-11-02T07:44:04;9.50;;;3.40;;
55732;SDS011;41637;52.364;9.910;2022-11-02T07:46:37;8.00;;;2.30;;
55732;SDS011;41637;52.364;9.910;2022-11-02T07:49:10;15.30;;;6.20;;
55732;SDS011;41637;52.364;9.910;2022-11-02T07:51:54;9.70;;;3.70;;
55732;SDS011;41637;52.364;9.910;2022-11-02T07:54:29;8.50;;;2.50;;
55732;SDS011;41637;52.364;9.910;2022-11-02T07:56:55;14.20;;;6.70;;
55732;SDS011;41637;52.364;9.910;2022-11-02T07:59:22;11.20;;;2.80;;
55732;SDS011;41637;52.364;9.910;2022-11-02T08:01:48;8.70;;;2.30;;
55732;SDS011;41637;52.364;9.910;2022-11-02T08:04:16;8.20;;;2.20;;
55732;SDS011;41637;52.364;9.910;2022-11-02T08:06:47;10.90;;;3.00;;
55732;SDS011;41637;52.364;9.910;2022-11-02T08:09:21;10.30;;;3.10;;
55732;SDS011;41637;52.364;9.910;2022-11-02T08:11:50;10.00;;;3.40;;
55732;SDS011;41637;52.364;9.910;2022-11-02T08:14:19;10.60;;;2.30;;
55732;SDS011;41637;52.364;9.910;2022-11-02T08:16:53;7.40;;;1.90;;
55732;SDS011;41637;52.364;9.910;2022-11-02T08:19:23;7.40;;;2.30;;
55732;SDS011;41637;52.364;9.910;2022-11-02T08:21:57;19.20;;;8.10;;
55732;SDS011;41637;52.364;9.910;2022-11-02T08:24:34;13.30;;;6.00;;
55732;SDS011;41637;52.364;9.910;2022-11-02T08:27:12;9.70;;;3.40;;
55732;SDS011;41637;52.364;9.910;2022-11-02T08:29:47;9.10;;;3.70;;
55732;SDS011;41637;52.364;9.910;2022-11-02T08:32:14;8.70;;;1.90;;
55732;SDS011;41637;52.364;9.910;2022-11-02T08:34:40;10.00;;;1.90;;
55732;SDS011;41637;52.364;9.910;2022-11-02T08:37:09;8.40;;;1.80;;
55732;SDS011;41637;52.364;9.910;2022-11-02T08:39:38;8.70;;;3.30;;
55732;SDS011;41637;52.364;9.910;2022-11-02T08:42:07;10.30;;;4.70;;
55732;SDS011;41637;52.364;9.910;2022-11-02T08:44:34;20.00;;;11.30;;
55732;SDS011;41637;52.364;9.910;2022-11-02T08:47:10;14.10;;;3.80;;
55732;SDS011;41637;52.364;9.910;2022-11-02T08:49:37;13.90;;;5.40;;
55732;SDS011;41637;52.364;9.910;2022-11-02T08:52:06;8.60;;;2.60;;
55732;SDS011;41637;52.364;9.910;2022-11-02T08:54:38;5.50;;;1.70;;
55732;SDS011;41637;52.364;9.910;2022-11-02T08:57:07;13.10;;;6.40;;
55732;SDS011;41637;52.364;9.910;2022-11-02T08:59:38;10.50;;;2.60;;
55732;SDS011;41637;52.364;9.910;2022-11-02T09:02:07;6.10;;;1.90;;
55732;SDS011;41637;52.364;9.910;2022-11-02T09:04:40;9.70;;;3.90;;
55732;SDS011;41637;52.364;9.910;2022-11-02T09:07:17;8.40;;;3.30;;
55732;SDS011;41637;52.364;9.910;2022-11-02T09:09:43;12.20;;;5.00;;
55732;SDS011;41637;52.364;9.910;2022-11-02T09:12:10;11.10;;;4.00;;
55732;SDS011;41637;52.364;9.910;2022-11-02T09:14:39;10.80;;;3.10;;
55732;SDS011;41637;52.364;9.910;2022-11-02T09:17:05;9.10;;;3.20;;
55732;SDS011;41637;52.364;9.910;2022-11-02T09:19:32;6.60;;;2.10;;
55732;SDS011;41637;52.364;9.910;2022-11-02T09:21:59;8.50;;;1.80;;
55732;SDS011;41637;52.364;9.910;2022-11-02T09:24:31;5.10;;;1.50;;
55732;SDS011;41637;52.364;9.910;2022-11-02T09:27:01;8.30;;;2.70;;
55732;SDS011;41637;52.364;9.910;2022-11-02T09:29:27;11.70;;;5.50;;
55732;SDS011;41637;52.364;9.910;2022-11-02T09:31:54;10.90;;;3.10;;
55732;SDS011;41637;52.364;9.910;2022-11-02T09:34:23;6.80;;;1.90;;
55732;SDS011;41637;52.364;9.910;2022-11-02T09:36:52;7.00;;;2.10;;
55732;SDS011;41637;52.364;9.910;2022-11-02T09:39:29;7.30;;;2.90;;
55732;SDS011;41637;52.364;9.910;2022-11-02T09:42:08;6.70;;;1.90;;
55732;SDS011;41637;52.364;9.910;2022-11-02T09:44:53;7.40;;;1.80;;
55732;SDS011;41637;52.364;9.910;2022-11-02T09:47:25;7.70;;;2.70;;
55732;SDS011;41637;52.364;9.910;2022-11-02T09:50:17;5.70;;;2.80;;
55732;SDS011;41637;52.364;9.910;2022-11-02T09:52:52;7.40;;;2.40;;
55732;SDS011;41637;52.364;9.910;2022-11-02T09:55:29;9.40;;;2.30;;
55732;SDS011;41637;52.364;9.910;2022-11-02T09:58:00;5.20;;;1.70;;
55732;SDS011;41637;52.364;9.910;2022-11-02T10:00:38;7.30;;;1.40;;
55732;SDS011;41637;52.364;9.910;2022-11-02T10:06:33;6.20;;;1.30;;
55732;SDS011;41637;52.364;9.910;2022-11-02T10:12:55;6.20;;;2.00;;
55732;SDS011;41637;52.364;9.910;2022-11-02T10:15:49;9.60;;;3.90;;
55732;SDS011;41637;52.364;9.910;2022-11-02T10:18:24;4.00;;;1.30;;
55732;SDS011;41637;52.364;9.910;2022-11-02T10:20:53;6.20;;;1.50;;
55732;SDS011;41637;52.364;9.910;2022-11-02T10:23:37;7.00;;;1.00;;
55732;SDS011;41637;52.364;9.910;2022-11-02T10:26:21;5.20;;;1.20;;
55732;SDS011;41637;52.364;9.910;2022-11-02T10:28:58;5.00;;;1.20;;
55732;SDS011;41637;52.364;9.910;2022-11-02T10:31:34;4.70;;;1.40;;
55732;SDS011;41637;52.364;9.910;2022-11-02T10:34:23;6.80;;;1.00;;
55732;SDS011;41637;52.364;9.910;2022-11-02T10:40:13;6.30;;;1.30;;
55732;SDS011;41637;52.364;9.910;2022-11-02T10:48:47;3.90;;;0.90;;
55732;SDS011;41637;52.364;9.910;2022-11-02T10:51:17;4.90;;;0.90;;
55732;SDS011;41637;52.364;9.910;2022-11-02T10:53:45;5.50;;;1.30;;
55732;SDS011;41637;52.364;9.910;2022-11-02T10:56:19;4.30;;;0.90;;
55732;SDS011;41637;52.364;9.910;2022-11-02T11:01:29;4.10;;;0.70;;
55732;SDS011;41637;52.364;9.910;2022-11-02T11:04:04;6.00;;;1.00;;
55732;SDS011;41637;52.364;9.910;2022-11-02T11:09:12;4.10;;;1.00;;
55732;SDS011;41637;52.364;9.910;2022-11-02T11:11:51;6.90;;;1.40;;
55732;SDS011;41637;52.364;9.910;2022-11-02T11:14:28;4.70;;;0.90;;
55732;SDS011;41637;52.364;9.910;2022-11-02T11:17:30;5.30;;;0.90;;
55732;SDS011;41637;52.364;9.910;2022-11-02T11:20:25;6.20;;;1.00;;
55732;SDS011;41637;52.364;9.910;2022-11-02T11:25:41;6.00;;;0.90;;
55732;SDS011;41637;52.364;9.910;2022-11-02T11:31:06;3.80;;;0.90;;
55732;SDS011;41637;52.364;9.910;2022-11-02T11:33:43;5.20;;;1.00;;
55732;SDS011;41637;52.364;9.910;2022-11-02T11:36:18;4.40;;;0.70;;
55732;SDS011;41637;52.364;9.910;2022-11-02T11:38:48;5.40;;;1.10;;
55732;SDS011;41637;52.364;9.910;2022-11-02T11:41:16;3.20;;;0.70;;
55732;SDS011;41637;52.364;9.910;2022-11-02T11:43:43;5.40;;;1.30;;
55732;SDS011;41637;52.364;9.910;2022-11-02T11:46:12;6.10;;;1.10;;
55732;SDS011;41637;52.364;9.910;2022-11-02T11:48:41;5.70;;;1.00;;
55732;SDS011;41637;52.364;9.910;2022-11-02T11:51:27;6.80;;;1.20;;
55732;SDS011;41637;52.364;9.910;2022-11-02T11:56:58;5.30;;;1.00;;
55732;SDS011;41637;52.364;9.910;2022-11-02T11:59:59;4.70;;;1.10;;
55732;SDS011;41637;52.364;9.910;2022-11-02T12:02:31;5.30;;;0.90;;
55732;SDS011;41637;52.364;9.910;2022-11-02T12:05:16;6.40;;;1.40;;
55732;SDS011;41637;52.364;9.910;2022-11-02T12:16:35;5.80;;;1.20;;
55732;SDS011;41637;52.364;9.910;2022-11-02T12:22:32;4.50;;;1.00;;
55732;SDS011;41637;52.364;9.910;2022-11-02T12:30:49;6.00;;;1.30;;
55732;SDS011;41637;52.364;9.910;2022-11-02T12:36:44;4.20;;;1.00;;
55732;SDS011;41637;52.364;9.910;2022-11-02T12:42:12;4.80;;;1.00;;
55732;SDS011;41637;52.364;9.910;2022-11-02T12:53:26;4.40;;;1.20;;
55732;SDS011;41637;52.364;9.910;2022-11-02T12:56:05;4.60;;;1.30;;
55732;SDS011;41637;52.364;9.910;2022-11-02T12:58:37;5.60;;;1.30;;
55732;SDS011;41637;52.364;9.910;2022-11-02T13:01:50;4.00;;;0.80;;
55732;SDS011;41637;52.364;9.910;2022-11-02T13:04:14;4.90;;;1.00;;
55732;SDS011;41637;52.364;9.910;2022-11-02T13:07:11;4.80;;;1.20;;
55732;SDS011;41637;52.364;9.910;2022-11-02T13:12:18;3.30;;;1.00;;
55732;SDS011;41637;52.364;9.910;2022-11-02T13:15:04;4.00;;;0.80;;
55732;SDS011;41637;52.364;9.910;2022-11-02T13:20:43;7.20;;;1.40;;
55732;SDS011;41637;52.364;9.910;2022-11-02T13:26:07;3.20;;;0.90;;
55732;SDS011;41637;52.364;9.910;2022-11-02T13:28:43;3.70;;;0.90;;
55732;SDS011;41637;52.364;9.910;2022-11-02T13:31:23;4.70;;;1.00;;
55732;SDS011;41637;52.364;9.910;2022-11-02T13:33:56;4.50;;;1.00;;
55732;SDS011;41637;52.364;9.910;2022-11-02T13:36:26;4.40;;;1.10;;
55732;SDS011;41637;52.364;9.910;2022-11-02T13:50:38;5.40;;;1.10;;
55732;SDS011;41637;52.364;9.910;2022-11-02T13:53:12;5.30;;;1.10;;
55732;SDS011;41637;52.364;9.910;2022-11-02T13:55:43;5.20;;;1.20;;
55732;SDS011;41637;52.364;9.910;2022-11-02T14:00:50;7.10;;;1.80;;
55732;SDS011;41637;52.364;9.910;2022-11-02T14:05:53;4.10;;;1.10;;
55732;SDS011;41637;52.364;9.910;2022-11-02T14:11:02;5.70;;;1.10;;
55732;SDS011;41637;52.364;9.910;2022-11-02T14:27:00;4.80;;;1.00;;
55732;SDS011;41637;52.364;9.910;2022-11-02T14:29:52;4.20;;;1.00;;
55732;SDS011;41637;52.364;9.910;2022-11-02T14:34:50;4.80;;;1.10;;
55732;SDS011;41637;52.364;9.910;2022-11-02T14:43:24;5.50;;;1.20;;
55732;SDS011;41637;52.364;9.910;2022-11-02T14:49:16;3.80;;;1.00;;
55732;SDS011;41637;52.364;9.910;2022-11-02T14:51:53;4.90;;;1.10;;
55732;SDS011;41637;52.364;9.910;2022-11-02T14:54:30;4.50;;;1.20;;
55732;SDS011;41637;52.364;9.910;2022-11-02T14:59:34;4.70;;;1.40;;
55732;SDS011;41637;52.364;9.910;2022-11-02T15:02:09;4.60;;;0.90;;
55732;SDS011;41637;52.364;9.910;2022-11-02T15:04:51;4.80;;;1.20;;
55732;SDS011;41637;52.364;9.910;2022-11-02T15:12:45;5.00;;;1.10;;
55732;SDS011;41637;52.364;9.910;2022-11-02T15:15:24;5.30;;;1.20;;
55732;SDS011;41637;52.364;9.910;2022-11-02T15:23:15;4.40;;;1.10;;
55732;SDS011;41637;52.364;9.910;2022-11-02T15:25:56;4.30;;;0.90;;
55732;SDS011;41637;52.364;9.910;2022-11-02T15:28:25;5.00;;;1.10;;
55732;SDS011;41637;52.364;9.910;2022-11-02T15:30:55;5.10;;;1.10;;
55732;SDS011;41637;52.364;9.910;2022-11-02T15:33:38;5.90;;;1.30;;
55732;SDS011;41637;52.364;9.910;2022-11-02T15:36:13;5.50;;;1.30;;
55732;SDS011;41637;52.364;9.910;2022-11-02T15:38:47;6.20;;;1.20;;
55732;SDS011;41637;52.364;9.910;2022-11-02T15:47:01;4.10;;;1.30;;
55732;SDS011;41637;52.364;9.910;2022-11-02T15:52:34;7.60;;;1.50;;
55732;SDS011;41637;52.364;9.910;2022-11-02T15:55:59;7.00;;;1.50;;
55732;SDS011;41637;52.364;9.910;2022-11-02T16:01:33;6.40;;;1.50;;
55732;SDS011;41637;52.364;9.910;2022-11-02T16:04:01;7.00;;;1.40;;
55732;SDS011;41637;52.364;9.910;2022-11-02T16:06:38;6.10;;;1.40;;
55732;SDS011;41637;52.364;9.910;2022-11-02T16:09:29;6.10;;;1.80;;
55732;SDS011;41637;52.364;9.910;2022-11-02T16:12:11;6.20;;;1.60;;
55732;SDS011;41637;52.364;9.910;2022-11-02T16:14:42;5.60;;;1.30;;
55732;SDS011;41637;52.364;9.910;2022-11-02T16:28:18;7.40;;;1.50;;
55732;SDS011;41637;52.364;9.910;2022-11-02T16:38:59;6.10;;;1.60;;
55732;SDS011;41637;52.364;9.910;2022-11-02T16:41:29;6.40;;;1.70;;
55732;SDS011;41637;52.364;9.910;2022-11-02T16:43:57;6.20;;;1.50;;
55732;SDS011;41637;52.364;9.910;2022-11-02T16:46:29;5.20;;;1.40;;
55732;SDS011;41637;52.364;9.910;2022-11-02T16:49:18;7.80;;;1.80;;
55732;SDS011;41637;52.364;9.910;2022-11-02T16:51:50;5.90;;;1.90;;
55732;SDS011;41637;52.364;9.910;2022-11-02T16:57:01;10.90;;;2.00;;
55732;SDS011;41637;52.364;9.910;2022-11-02T16:59:44;7.30;;;1.90;;
55732;SDS011;41637;52.364;9.910;2022-11-02T17:02:17;8.70;;;1.70;;
55732;SDS011;41637;52.364;9.910;2022-11-02T17:04:45;7.90;;;2.10;;
55732;SDS011;41637;52.364;9.910;2022-11-02T17:07:32;4.70;;;1.70;;
55732;SDS011;41637;52.364;9.910;2022-11-02T17:10:02;9.10;;;2.10;;
55732;SDS011;41637;52.364;9.910;2022-11-02T17:12:39;6.10;;;1.90;;
55732;SDS011;41637;52.364;9.910;2022-11-02T17:15:16;14.50;;;4.90;;
55732;SDS011;41637;52.364;9.910;2022-11-02T17:18:13;10.80;;;3.40;;
55732;SDS011;41637;52.364;9.910;2022-11-02T17:20:37;8.20;;;2.20;;
55732;SDS011;41637;52.364;9.910;2022-11-02T17:23:47;8.30;;;2.30;;
55732;SDS011;41637;52.364;9.910;2022-11-02T17:26:22;7.30;;;2.30;;
55732;SDS011;41637;52.364;9.910;2022-11-02T17:31:21;9.40;;;2.30;;
55732;SDS011;41637;52.364;9.910;2022-11-02T17:34:15;8.40;;;2.10;;
55732;SDS011;41637;52.364;9.910;2022-11-02T17:36:45;8.20;;;2.40;;
55732;SDS011;41637;52.364;9.910;2022-11-02T17:39:14;8.00;;;2.30;;
55732;SDS011;41637;52.364;9.910;2022-11-02T17:41:43;7.10;;;2.20;;
55732;SDS011;41637;52.364;9.910;2022-11-02T17:44:30;9.50;;;2.40;;
55732;SDS011;41637;52.364;9.910;2022-11-02T17:46:57;7.70;;;2.00;;
55732;SDS011;41637;52.364;9.910;2022-11-02T17:49:24;10.90;;;2.30;;
55732;SDS011;41637;52.364;9.910;2022-11-02T17:51:50;7.40;;;1.90;;
55732;SDS011;41637;52.364;9.910;2022-11-02T17:54:17;9.10;;;2.30;;
55732;SDS011;41637;52.364;9.910;2022-11-02T17:56:43;10.50;;;2.40;;
55732;SDS011;41637;52.364;9.910;2022-11-02T17:59:10;6.20;;;2.30;;
55732;SDS011;41637;52.364;9.910;2022-11-02T18:01:36;11.30;;;2.70;;
55732;SDS011;41637;52.364;9.910;2022-11-02T18:04:03;7.80;;;2.40;;
55732;SDS011;41637;52.364;9.910;2022-11-02T18:06:30;9.70;;;2.50;;
55732;SDS011;41637;52.364;9.910;2022-11-02T18:08:56;9.10;;;2.60;;
55732;SDS011;41637;52.364;9.910;2022-11-02T18:11:46;7.60;;;2.10;;
55732;SDS011;41637;52.364;9.910;2022-11-02T18:14:13;9.20;;;2.50;;
55732;SDS011;41637;52.364;9.910;2022-11-02T18:16:42;7.90;;;2.30;;
55732;SDS011;41637;52.364;9.910;2022-11-02T18:19:09;8.90;;;2.50;;
55732;SDS011;41637;52.364;9.910;2022-11-02T18:21:35;12.00;;;3.10;;
55732;SDS011;41637;52.364;9.910;2022-11-02T18:24:02;10.50;;;3.30;;
55732;SDS011;41637;52.364;9.910;2022-11-02T18:26:29;11.70;;;3.40;;
55732;SDS011;41637;52.364;9.910;2022-11-02T18:28:55;10.10;;;3.10;;
55732;SDS011;41637;52.364;9.910;2022-11-02T18:31:23;9.70;;;3.10;;
55732;SDS011;41637;52.364;9.910;2022-11-02T18:33:49;12.00;;;3.90;;
55732;SDS011;41637;52.364;9.910;2022-11-02T18:36:18;9.90;;;3.40;;
55732;SDS011;41637;52.364;9.910;2022-11-02T18:38:44;11.80;;;3.80;;
55732;SDS011;41637;52.364;9.910;2022-11-02T18:41:11;9.70;;;3.80;;
55732;SDS011;41637;52.364;9.910;2022-11-02T18:44:01;9.70;;;4.40;;
55732;SDS011;41637;52.364;9.910;2022-11-02T18:46:37;9.30;;;4.80;;
55732;SDS011;41637;52.364;9.910;2022-11-02T18:49:06;9.80;;;4.30;;
55732;SDS011;41637;52.364;9.910;2022-11-02T18:51:33;12.70;;;5.30;;
55732;SDS011;41637;52.364;9.910;2022-11-02T18:54:01;11.10;;;4.70;;
55732;SDS011;41637;52.364;9.910;2022-11-02T18:56:29;9.50;;;4.20;;
55732;SDS011;41637;52.364;9.910;2022-11-02T18:58:55;11.90;;;3.10;;